Weather observations for the past three days for
Newton, Newton City/County Airport
Metric (Imperial)
Date Time (cdt) Wind (kph) Vis. (km) Weather Sky Cond. Temperature (ºC) Relative Humidity Wind Chill (°C) Heat Index (°C) Pressure Precipitation (cm)
Air Dwpt 6 hour altimeter (cm) sea level (mb) 1 hr 3 hr 6 hr
Max. Min.
02 13:56 S 31 G 39 16.09 Fair CLR 37.8 17.2 30% 39 76.1 1012.2
02 12:56 S 35 G 43 16.09 Fair and Breezy CLR 36.7 17.2 36.7 25 32% 38 76.15 1013.1 0.03 0.03
02 11:56 S 28 G 44 16.09 Fair CLR 35 18.3 37% 36 76.2 1013.7
02 10:56 S 30 16.09 Fair CLR 33.3 18.3 41% 34 76.23 1014.3
02 09:56 SW 28 16.09 A Few Clouds FEW110 30 18.3 49% 31 76.23 1014.3
02 08:56 S 24 16.09 Fair CLR 29.4 17.8 50% 30 76.23 1014.4
02 07:56 S 20 16.09 Fair CLR 26.1 17.2 58% 27 76.23 1014.3
02 06:56 S 20 16.09 Fair CLR 26.1 16.7 28.3 24.4 56% 27 76.2 1013.8
02 05:56 S 20 16.09 Fair CLR 26.7 16.7 54% 27 76.17 1013.3
02 04:56 SW 24 G 35 16.09 Fair CLR 27.8 16.7 51% 28 76.15 1013.0
02 03:56 S 15 16.09 Fair CLR 25 16.1 58% 26 76.15 1013.0
02 02:56 S 15 16.09 Fair CLR 25.6 16.1 56% 26 76.15 1013.0
02 01:56 S 17 16.09 Fair CLR 26.1 16.1 54% 27 76.12 1012.7
02 00:56 S 17 16.09 Fair CLR 26.7 16.1 35 26.7 52% 27 76.15 1013.0
01 23:56 S 19 16.09 Fair CLR 27.2 15 47% 27 76.15 1012.9
01 22:56 S 15 16.09 Fair CLR 27.8 14.4 44% 28 76.15 1013.0
01 21:56 S 15 16.09 Fair CLR 28.3 14.4 43% 28 76.12 1012.7
01 20:56 SE 15 16.09 Fair CLR 29.4 13.9 39% 29 76.07 0.0
01 19:56 S 19 16.09 Fair CLR 32.8 13.9 32% 32 76.05 0.0
01 18:56 S 30 G 37 16.09 Fair CLR 35 13.3 38.3 35 27% 34 76.05 0.0
01 17:56 S 28 G 43 16.09 Fair CLR 36.7 13.3 24% 36 76.05 0.0
01 16:56 SW 26 G 37 16.09 Fair CLR 37.8 13.3 23% 37 76.05 0.0
01 15:56 S 28 G 43 16.09 Fair CLR 37.8 14.4 25% 38 76.1 0.0
01 14:56 SW 33 16.09 Fair and Breezy CLR 37.8 14.4 25% 38 76.15 0.0
01 13:56 S 28 G 41 16.09 Fair CLR 37.8 14.4 25% 38 76.2 0.0
01 12:56 S 24 G 37 16.09 Fair CLR 36.7 15 27% 37 76.25 0.0
01 11:56 SW 24 G 33 16.09 Fair CLR 35.6 16.1 31% 36 76.28 0.0
01 10:56 SW 30 G 39 16.09 A Few Clouds FEW100 33.3 16.1 36% 33 76.28 0.0
01 09:56 S 31 G 41 16.09 Fair CLR 31.7 15.6 38% 31 76.3 0.0
01 07:56 S 17 16.09 Fair CLR 25.6 15 52% 26 76.33 1015.5
01 06:56 S 15 16.09 A Few Clouds FEW100 24.4 14.4 28.3 23.9 54% 26 76.28 1014.8
01 05:56 S 15 16.09 Fair CLR 25 14.4 52% 26 76.28 1014.8
01 04:56 SW 20 16.09 Fair CLR 26.7 13.9 45% 27 76.25 1014.2
01 03:56 S 19 16.09 Fair CLR 27.2 13.9 44% 27 76.23 1013.7
01 02:56 S 24 16.09 Fair CLR 27.8 13.9 43% 28 76.17 1013.3
01 01:56 S 17 16.09 Fair CLR 26.7 15 49% 27 76.2 1013.7
01 00:56 S 17 16.09 Fair CLR 26.1 15.6 35.6 25.6 52% 27 76.2 1013.8
31 23:56 S 13 16.09 Fair CLR 26.7 15.6 51% 27 76.2 1013.7
31 22:56 S 15 16.09 Fair CLR 28.3 15.6 46% 28 76.2 1013.7
31 21:56 SE 15 16.09 Fair CLR 28.9 15 43% 29 76.12 1012.9
31 20:56 SE 15 16.09 Fair CLR 30 15 40% 30 76.05 1012.0
31 19:56 SE 15 16.09 Fair CLR 32.2 15 35% 32 76.05 1011.7
31 18:56 S 24 16.09 Fair CLR 35.6 13.3 39.4 35.6 26% 35 76.02 1011.5
31 17:56 S 24 16.09 Fair CLR 37.2 12.8 23% 36 76.02 1011.4
31 16:56 S 17 G 35 16.09 Fair CLR 38.9 13.3 22% 38 76.05 1011.4
31 15:56 S 24 G 35 16.09 Fair CLR 38.9 15 24% 39 76.07 1011.7
31 14:56 S 19 G 39 16.09 Fair CLR 38.9 15.6 25% 39 76.1 1012.3
31 13:56 S 22 G 37 16.09 Fair CLR 37.8 16.7 29% 39 76.15 1012.7
31 12:56 S 30 G 35 16.09 Fair CLR 37.2 17.2 37.2 25 31% 38 76.17 1013.2
31 11:56 S 28 16.09 Fair CLR 35 16.7 34% 35 76.2 1013.6
31 10:56 S 20 16.09 Fair CLR 32.8 16.7 38% 33 76.23 1014.1
31 09:56 S 17 16.09 Fair CLR 29.4 15.6 43% 29 76.25 1014.5
31 08:56 S 7 16.09 Fair CLR 27.2 16.1 51% 28 76.3 1015.0
31 07:56 SW 6 9.66 Partly Cloudy with Haze SCT120 25 16.1 58% 26 76.25 1014.6
31 06:56 S 17 16.09 Fair CLR 25 15.6 30 25 56% 26 76.17 1013.3
31 04:56 SW 19 16.09 Fair CLR 27.8 15 46% 28 76.12 1012.5
31 03:56 S 26 16.09 Fair CLR 28.3 15.6 46% 28 76.05 1011.6
31 02:56 S 28 16.09 Fair CLR 28.9 15.6 44% 29 76.02 1011.1
31 01:56 S 24 16.09 Fair CLR 29.4 15.6 43% 29 76.05 1011.5
31 00:56 S 22 16.09 Fair CLR 29.4 15 37.8 29.4 42% 29 76.02 1011.3
30 23:56 S 26 16.09 Fair CLR 30.6 15 39% 30 75.95 1010.1
30 22:56 S 26 16.09 Fair CLR 31.1 15.6 39% 31 75.92 1009.9
30 21:56 S 20 16.09 Fair CLR 31.7 15 36% 31 75.92 1010.1
30 20:56 S 20 16.09 Fair CLR 33.3 15.6 34% 33 75.9 1009.5
30 19:56 S 26 16.09 Fair CLR 35 16.7 34% 35 75.82 1008.7
30 18:56 S 26 G 43 16.09 Fair CLR 37.8 16.1 40.6 37.2 28% 38 75.82 1008.6
30 17:56 S 31 G 41 16.09 Fair CLR 38.9 16.1 26% 40 75.77 1008.0
30 16:56 S 37 G 44 16.09 Fair and Breezy CLR 40 15.6 24% 41 75.77 1007.8
30 15:56 SW 41 G 52 16.09 Fair and Breezy CLR 40.6 15.6 23% 41 75.79 1008.0
30 14:56 SW 35 G 50 16.09 Fair and Breezy CLR 40 16.7 25% 41 75.84 1008.9
Date Time (cdt) Wind (kph) Vis. (km) Weather Sky Cond. Air Dwpt Max. Min. Relative Humidity Wind Chill (°C) Heat Index (°C) altimeter (cm) sea level (mb) 1 hr 3 hr 6 hr
6 hour
Temperature (ºC) Pressure Precipitation (cm)